Terminal Aerodrome Forecast
Issued by NWS Jackson, MS

Home | Current Version | Previous Version | Text Only | Print | Product List | Glossary On
Versions: 1 2 3 4 5 6 7 8 9 10 11 12 13 14 15 16
956
FTUS44 KJAN 221743
TAFJAN
TAF
KJAN 221743Z 2218/2318 04007KT P6SM SCT030
     FM222200 02003KT P6SM SKC
     FM230500 VRB04KT 4SM BR SKC
     FM230800 00000KT 2SM BR SCT005 BKN010
     FM231000 00000KT 1/4SM FG BKN005=

USA.gov is the U.S. government's official web portal to all federal, state and local government web resources and services.